Shrewsbury, Massachusetts
Current Conditions -  °F | °C
As of 7:17 AM on Monday 24 Nov 2014 (Local Time) from KORH Reporting Station
Moderate Rain Moderate Rain  
Wind Chill: 53°   Ceiling: 200
Heat Index: 53°   Visibility: 4mi
Dew Point: 53°   Wind: 16mph
Humidity: 100%   Direction: 160°SSE
Pressure: 29.78"   Gusts: 28mph
Location:  42.3°N, 71.71°W
Report Text: KORH 241217Z 16014G24KT 4SM R11/4000VP6000FT RA BR OVC002 12/12 A2978 RMK AO2 P0002 T01170117 $
Loading
Personal Weather Stations






























Interactive Weather Map New forecast layout! Learn more

10-Day Weather Forecast

Advertisements
Track Severe Weather on mobile